Time;durP1;ratioP1;P1;durP2;ratioP2;P2;SDS_P1;SDS_P2;PMS_P1;PMS_P2;Temp;Humidity;BMP_temperature;BMP_pressure;BME280_temperature;BME280_humidity;BME280_pressure;Samples;Min_cycle;Max_cycle;Signal;HPM_P1;HPM_P2
2021/09/10 00:00:07;;;;;;;15.93;12.73;;;;;;;18.20;98.46;100523.47;691122;28;1002;-54
2021/09/10 00:00:31;;;;;;;12.52;11.10;;;;;;;18.24;97.40;100521.56;691511;28;1918;-54
2021/09/10 00:00:52;;;;;;;11.50;10.30;;;;;;;18.30;96.63;100525.75;692540;28;4466;-54
2021/09/10 00:01:13;;;;;;;12.15;10.85;;;;;;;18.31;97.32;100520.41;691864;28;1037;-54
2021/09/10 00:01:33;;;;;;;13.63;12.23;;;;;;;18.29;97.82;100524.91;693021;28;1156;-52
2021/09/10 00:01:53;;;;;;;14.40;13.00;;;;;;;18.31;98.35;100525.69;691467;28;3425;-54
2021/09/10 00:02:14;;;;;;;15.57;13.02;;;;;;;18.29;98.70;100519.63;691503;28;1503;-55
2021/09/10 00:02:34;;;;;;;15.83;12.93;;;;;;;18.30;98.92;100525.75;692651;28;1189;-56
2021/09/10 00:02:55;;;;;;;14.60;13.10;;;;;;;18.29;99.04;100524.91;691439;28;903;-56
2021/09/10 00:03:15;;;;;;;14.70;12.97;;;;;;;18.26;99.41;100524.16;692100;28;1093;-54
2021/09/10 00:03:36;;;;;;;14.43;12.93;;;;;;;18.21;99.69;100521.69;692663;28;899;-53
2021/09/10 00:04:01;;;;;;;14.77;13.18;;;;;;;18.19;99.72;100528.81;691204;28;4600;-53
2021/09/10 00:04:21;;;;;;;14.35;12.90;;;;;;;18.18;99.58;100527.13;691737;28;823;-54
2021/09/10 00:04:42;;;;;;;15.02;13.43;;;;;;;18.17;99.68;100528.03;691599;28;2045;-56
2021/09/10 00:05:04;;;;;;;15.37;13.70;;;;;;;18.16;99.90;100523.66;692069;28;1272;-54
2021/09/10 00:05:25;;;;;;;17.27;13.80;;;;;;;18.16;99.45;100526.31;691737;28;1026;-55
2021/09/10 00:05:45;;;;;;;14.67;13.07;;;;;;;18.17;98.40;100525.38;692031;28;1496;-57
2021/09/10 00:06:05;;;;;;;14.95;13.07;;;;;;;18.17;99.13;100526.25;691846;28;1115;-55
2021/09/10 00:06:26;;;;;;;15.70;13.77;;;;;;;18.18;99.51;100527.97;691844;28;947;-55
2021/09/10 00:06:46;;;;;;;15.60;13.88;;;;;;;18.19;99.23;100523.53;692277;28;908;-51
2021/09/10 00:07:07;;;;;;;14.93;13.43;;;;;;;18.17;99.64;100531.53;690348;28;4333;-56
2021/09/10 00:07:27;;;;;;;15.13;13.52;;;;;;;18.18;99.71;100527.13;691639;28;1010;-54
2021/09/10 00:07:47;;;;;;;15.03;13.43;;;;;;;18.17;99.33;100533.31;692554;28;1411;-55
2021/09/10 00:08:08;;;;;;;15.43;13.10;;;;;;;18.17;99.42;100530.69;692701;28;2885;-54
2021/09/10 00:08:28;;;;;;;13.93;12.43;;;;;;;18.17;99.25;100530.69;692769;28;1572;-56
2021/09/10 00:08:49;;;;;;;14.20;12.80;;;;;;;18.16;99.31;100535.09;692985;28;3621;-56
2021/09/10 00:09:09;;;;;;;14.67;13.23;;;;;;;18.17;99.60;100528.88;692812;28;1419;-55
2021/09/10 00:09:29;;;;;;;15.63;13.88;;;;;;;18.18;99.73;100533.25;692513;28;1681;-56
2021/09/10 00:09:50;;;;;;;15.23;13.63;;;;;;;18.17;99.93;100531.53;693120;28;1717;-56
2021/09/10 00:10:11;;;;;;;15.10;13.45;;;;;;;18.19;100.00;100528.81;692093;28;4594;-56
2021/09/10 00:10:31;;;;;;;14.98;13.43;;;;;;;18.17;100.00;100530.69;693003;28;1564;-55
2021/09/10 00:10:51;;;;;;;16.73;13.80;;;;;;;18.18;100.00;100527.97;692922;28;1135;-55
2021/09/10 00:11:12;;;;;;;17.23;13.70;;;;;;;18.17;100.00;100531.53;690873;28;1375;-56
2021/09/10 00:11:32;;;;;;;17.00;13.87;;;;;;;18.18;100.00;100527.13;693881;28;2580;-52
2021/09/10 00:11:53;;;;;;;15.50;13.77;;;;;;;18.18;99.90;100527.13;690478;28;1417;-53
2021/09/10 00:12:13;;;;;;;15.15;13.55;;;;;;;18.19;99.06;100528.81;689742;28;3820;-54
2021/09/10 00:12:33;;;;;;;13.93;12.43;;;;;;;18.20;98.46;100525.25;689530;28;1294;-53
2021/09/10 00:12:54;;;;;;;13.55;11.98;;;;;;;18.20;97.93;100531.41;690857;28;4650;-55
2021/09/10 00:13:15;;;;;;;12.93;11.53;;;;;;;18.22;97.52;100526.09;692526;28;1634;-55
2021/09/10 00:13:35;;;;;;;13.75;12.07;;;;;;;18.23;97.83;100530.44;692980;28;946;-55
2021/09/10 00:13:55;;;;;;;14.50;13.00;;;;;;;18.23;98.30;100527.78;690787;28;907;-58
2021/09/10 00:14:16;;;;;;;14.93;13.43;;;;;;;18.23;98.85;100526.94;692233;28;1661;-52
2021/09/10 00:14:36;;;;;;;15.17;13.60;;;;;;;18.23;98.70;100529.56;692936;28;1422;-56
2021/09/10 00:14:56;;;;;;;14.47;12.97;;;;;;;18.22;98.94;100526.09;691371;28;1020;-55
2021/09/10 00:15:17;;;;;;;14.05;12.57;;;;;;;18.23;98.75;100537.50;692672;28;4209;-56
2021/09/10 00:15:37;;;;;;;15.77;12.40;;;;;;;18.23;98.47;100529.56;692221;28;2231;-57
2021/09/10 00:15:58;;;;;;;14.52;12.43;;;;;;;18.23;97.88;100534.88;692405;28;4428;-54
2021/09/10 00:16:18;;;;;;;12.80;11.60;;;;;;;18.24;97.65;100534.81;692377;28;1753;-53
2021/09/10 00:16:39;;;;;;;13.80;12.02;;;;;;;18.25;98.49;100533.00;693826;28;1481;-55
2021/09/10 00:16:59;;;;;;;15.37;13.23;;;;;;;18.24;98.81;100526.03;691987;28;929;-53
2021/09/10 00:17:19;;;;;;;14.03;12.63;;;;;;;18.26;97.30;100532.94;691720;28;1379;-56
2021/09/10 00:17:40;;;;;;;11.70;10.53;;;;;;;18.32;96.42;100532.72;692896;28;1504;-55
2021/09/10 00:18:00;;;;;;;12.17;10.87;;;;;;;18.33;97.84;100531.81;692782;28;1540;-55
2021/09/10 00:18:22;;;;;;;13.25;11.90;;;;;;;18.33;97.97;100528.28;692283;28;1372;-51
2021/09/10 00:18:43;;;;;;;13.68;12.27;;;;;;;18.30;98.86;100529.25;692348;28;2706;-54
2021/09/10 00:19:04;;;;;;;14.50;12.73;;;;;;;18.30;99.24;100533.69;691565;28;5000;-56
2021/09/10 00:19:24;;;;;;;14.80;13.15;;;;;;;18.28;99.37;100533.75;692201;28;1645;-55
2021/09/10 00:19:45;;;;;;;14.07;12.53;;;;;;;18.26;98.98;100530.31;692888;28;1566;-56
2021/09/10 00:20:06;;;;;;;15.00;12.57;;;;;;;18.26;98.48;100535.59;692084;28;1413;-55
2021/09/10 00:20:26;;;;;;;14.63;12.47;;;;;;;18.26;98.22;100535.59;692896;28;1922;-56
2021/09/10 00:20:46;;;;;;;14.47;12.60;;;;;;;18.27;98.70;100531.19;692340;28;1173;-55
2021/09/10 00:21:09;;;;;;;15.03;13.30;;;;;;;18.25;99.13;100533.91;692484;28;1166;-53
2021/09/10 00:21:29;;;;;;;15.25;13.10;;;;;;;18.24;99.61;100534.81;692383;28;1708;-55
2021/09/10 00:21:50;;;;;;;14.07;12.17;;;;;;;18.25;98.26;100536.53;692344;28;1485;-55
2021/09/10 00:22:10;;;;;;;13.98;11.57;;;;;;;18.24;98.91;100526.88;690787;28;4193;-57
2021/09/10 00:22:30;;;;;;;15.10;12.30;;;;;;;18.24;99.35;100526.03;692218;28;1586;-56
2021/09/10 00:22:51;;;;;;;15.85;12.70;;;;;;;18.24;99.09;100534.81;691985;28;4182;-57
2021/09/10 00:23:12;;;;;;;14.67;12.30;;;;;;;18.23;99.12;100524.28;691413;28;1809;-54
2021/09/10 00:23:32;;;;;;;14.00;12.52;;;;;;;18.23;99.02;100525.13;692284;28;1418;-55
2021/09/10 00:23:53;;;;;;;14.30;12.80;;;;;;;18.24;99.37;100526.88;692580;28;1660;-55
2021/09/10 00:24:13;;;;;;;15.00;13.38;;;;;;;18.22;99.79;100531.38;691657;28;1113;-55
2021/09/10 00:24:34;;;;;;;14.50;12.80;;;;;;;18.23;99.63;100529.56;692765;28;1557;-55
2021/09/10 00:24:54;;;;;;;14.70;13.13;;;;;;;18.24;99.80;100526.03;692209;28;4500;-57
2021/09/10 00:25:14;;;;;;;14.10;12.60;;;;;;;18.25;98.44;100528.59;691058;28;1626;-55
2021/09/10 00:25:35;;;;;;;12.27;10.80;;;;;;;18.29;97.78;100532.84;691832;28;3999;-56
2021/09/10 00:25:55;;;;;;;12.80;11.50;;;;;;;18.28;98.72;100528.47;692212;28;3662;-55
2021/09/10 00:26:15;;;;;;;14.10;12.60;;;;;;;18.27;99.17;100525.88;692382;28;1511;-55
2021/09/10 00:26:36;;;;;;;15.10;12.52;;;;;;;18.26;98.82;100532.09;692645;28;1528;-54
2021/09/10 00:26:56;;;;;;;15.13;11.80;;;;;;;18.25;99.01;100527.72;691660;28;1588;-53
2021/09/10 00:27:17;;;;;;;14.75;12.27;;;;;;;18.25;99.31;100528.59;691749;28;1278;-55
2021/09/10 00:27:37;;;;;;;14.77;11.97;;;;;;;18.27;98.59;100525.88;690803;28;995;-55
2021/09/10 00:27:57;;;;;;;12.77;10.70;;;;;;;18.30;97.28;100525.75;691157;28;4582;-56
2021/09/10 00:28:18;;;;;;;11.40;10.20;;;;;;;18.32;97.59;100521.28;691028;28;1768;-54
2021/09/10 00:28:38;;;;;;;13.13;11.60;;;;;;;18.33;98.27;100531.81;692252;28;1519;-55
2021/09/10 00:28:59;;;;;;;14.13;12.10;;;;;;;18.33;98.48;100530.94;691640;28;1401;-56
2021/09/10 00:29:19;;;;;;;13.87;12.17;;;;;;;18.32;98.27;100530.06;690592;28;4059;-56
2021/09/10 00:29:41;;;;;;;13.90;12.25;;;;;;;18.33;98.32;100530.94;689748;28;1790;-56
2021/09/10 00:30:03;;;;;;;13.68;11.77;;;;;;;18.32;98.53;100522.13;690286;28;2093;-57
2021/09/10 00:30:23;;;;;;;13.63;11.90;;;;;;;18.32;98.90;100539.81;688974;28;1768;-56
2021/09/10 00:30:44;;;;;;;13.23;11.93;;;;;;;18.30;98.08;100529.25;690580;28;1512;-53
2021/09/10 00:31:04;;;;;;;12.80;11.00;;;;;;;18.32;97.24;100529.22;690350;28;4434;-55
2021/09/10 00:31:24;;;;;;;14.90;11.57;;;;;;;18.33;98.02;100528.28;693209;28;1713;-56
2021/09/10 00:31:47;;;;;;;13.83;11.80;;;;;;;18.31;97.92;100528.34;694778;28;1204;-54
2021/09/10 00:32:07;;;;;;;12.52;11.23;;;;;;;18.36;96.71;100533.47;693695;28;1436;-56
2021/09/10 00:32:28;;;;;;;12.73;11.03;;;;;;;18.36;97.60;100529.03;692296;28;792;-57
2021/09/10 00:32:48;;;;;;;12.60;11.30;;;;;;;18.37;97.63;100527.25;692574;28;4292;-57
2021/09/10 00:33:08;;;;;;;13.13;11.50;;;;;;;18.38;95.96;100524.53;692029;28;1509;-52
2021/09/10 00:33:29;;;;;;;11.38;10.02;;;;;;;18.44;94.96;100528.75;692242;28;1763;-52
2021/09/10 00:33:49;;;;;;;12.17;10.87;;;;;;;18.45;96.35;100525.16;692648;28;1638;-51
2021/09/10 00:34:10;;;;;;;12.82;11.55;;;;;;;18.45;97.02;100524.31;692016;28;4368;-55
2021/09/10 00:34:30;;;;;;;12.97;11.67;;;;;;;18.43;97.59;100524.38;691504;28;891;-55
2021/09/10 00:34:51;;;;;;;15.10;11.93;;;;;;;18.43;97.78;100521.72;692543;28;1696;-56
2021/09/10 00:35:11;;;;;;;13.55;12.07;;;;;;;18.43;97.36;100526.13;692362;28;939;-57
2021/09/10 00:35:31;;;;;;;12.93;11.43;;;;;;;18.42;97.21;100519.13;690654;28;923;-54
2021/09/10 00:35:52;;;;;;;12.90;11.45;;;;;;;18.42;96.88;100524.44;692317;28;1599;-55
2021/09/10 00:36:12;;;;;;;13.57;11.67;;;;;;;18.42;97.11;100525.28;691535;28;3942;-56
2021/09/10 00:36:32;;;;;;;13.10;11.70;;;;;;;18.42;97.82;100527.06;691937;28;4170;-56
2021/09/10 00:36:53;;;;;;;12.52;11.23;;;;;;;18.49;96.56;100521.47;692140;28;4343;-55
2021/09/10 00:37:13;;;;;;;11.70;10.60;;;;;;;18.55;96.25;100529.19;690232;28;1473;-61
2021/09/10 00:37:33;;;;;;;12.30;10.77;;;;;;;18.57;95.68;100521.16;692774;28;1762;-52
2021/09/10 00:37:54;;;;;;;11.80;10.30;;;;;;;18.57;95.36;100522.94;692442;28;1410;-52
2021/09/10 00:38:14;;;;;;;12.27;10.87;;;;;;;18.54;96.49;100518.66;691654;28;1616;-55
2021/09/10 00:38:35;;;;;;;12.88;11.55;;;;;;;18.51;96.81;100519.63;692416;28;931;-55
2021/09/10 00:38:55;;;;;;;12.73;11.43;;;;;;;18.48;97.00;100521.53;691239;28;963;-57
2021/09/10 00:39:17;;;;;;;12.45;11.20;;;;;;;18.46;97.01;100529.53;692142;28;3457;-55
2021/09/10 00:39:37;;;;;;;13.02;11.63;;;;;;;18.47;96.96;100522.44;691626;28;2688;-55
2021/09/10 00:39:58;;;;;;;12.80;11.50;;;;;;;18.45;97.09;100526.94;692035;28;4688;-55
2021/09/10 00:40:18;;;;;;;12.88;11.57;;;;;;;18.44;96.56;100517.28;690498;28;1418;-52
2021/09/10 00:40:39;;;;;;;12.33;11.10;;;;;;;18.46;96.15;100526.03;691819;28;1977;-57
2021/09/10 00:41:01;;;;;;;12.82;11.52;;;;;;;18.45;96.85;100524.31;693051;28;1507;-56
2021/09/10 00:41:21;;;;;;;13.68;11.95;;;;;;;18.51;96.70;100521.41;692420;28;1219;-56
2021/09/10 00:41:42;;;;;;;12.90;11.60;;;;;;;18.49;96.74;100520.63;692970;28;1859;-57
2021/09/10 00:42:02;;;;;;;13.43;11.53;;;;;;;18.50;96.73;100523.19;691838;28;1876;-56
2021/09/10 00:42:23;;;;;;;13.30;11.30;;;;;;;18.47;96.55;100531.25;692700;28;1466;-56
2021/09/10 00:42:43;;;;;;;12.63;11.32;;;;;;;18.47;96.78;100514.50;692514;28;1460;-52
2021/09/10 00:43:04;;;;;;;12.77;11.47;;;;;;;18.47;95.93;100522.44;691996;28;4458;-57
2021/09/10 00:43:24;;;;;;;12.88;11.35;;;;;;;18.48;96.48;100524.16;692839;28;3741;-54
2021/09/10 00:43:44;;;;;;;12.30;11.03;;;;;;;18.48;95.93;100522.38;692683;28;1535;-54
2021/09/10 00:44:05;;;;;;;12.73;10.55;;;;;;;18.48;96.36;100524.16;692273;28;1843;-55
2021/09/10 00:44:25;;;;;;;12.83;11.20;;;;;;;18.46;96.69;100524.25;692615;28;1965;-55
2021/09/10 00:44:46;;;;;;;12.83;11.63;;;;;;;18.45;96.48;100519.84;692344;28;2022;-55
2021/09/10 00:45:07;;;;;;;12.53;11.23;;;;;;;18.46;95.62;100520.75;692236;28;1652;-54
2021/09/10 00:45:27;;;;;;;12.07;10.52;;;;;;;18.46;96.26;100524.25;692183;28;1034;-53
2021/09/10 00:45:48;;;;;;;12.17;10.97;;;;;;;18.47;96.36;100523.31;692480;28;1875;-55
2021/09/10 00:46:09;;;;;;;12.90;11.60;;;;;;;18.46;96.38;100518.09;690720;28;4452;-55
2021/09/10 00:46:30;;;;;;;12.75;11.55;;;;;;;18.43;97.25;100521.72;688559;28;1371;-57
2021/09/10 00:46:51;;;;;;;13.60;12.10;;;;;;;18.40;97.99;100521.84;689697;28;1934;-56
2021/09/10 00:47:12;;;;;;;13.70;12.30;;;;;;;18.36;98.47;100529.03;690551;28;2153;-56
2021/09/10 00:47:33;;;;;;;13.45;11.95;;;;;;;18.35;97.62;100524.66;691655;28;858;-57
2021/09/10 00:47:56;;;;;;;14.53;12.07;;;;;;;18.35;98.14;100524.66;691615;28;1350;-54
2021/09/10 00:48:20;;;;;;;13.93;12.27;;;;;;;18.35;98.30;100521.16;691427;28;1585;-55
2021/09/10 00:48:41;;;;;;;14.88;12.43;;;;;;;18.32;98.70;100530.06;691152;28;1373;-53
2021/09/10 00:49:02;;;;;;;14.23;12.75;;;;;;;18.31;98.73;100523.06;691097;28;4535;-56
2021/09/10 00:49:23;;;;;;;14.05;12.60;;;;;;;18.31;98.85;100522.22;691470;28;4348;-56
2021/09/10 00:49:44;;;;;;;14.60;12.97;;;;;;;18.29;99.02;100519.63;691731;28;1554;-57
2021/09/10 00:50:04;;;;;;;14.38;12.88;;;;;;;18.27;99.10;100523.25;691569;28;4264;-56
2021/09/10 00:50:25;;;;;;;14.38;12.50;;;;;;;18.25;99.23;100527.72;691991;28;2000;-57
2021/09/10 00:50:47;;;;;;;15.13;13.20;;;;;;;18.23;99.14;100525.13;692476;28;1692;-57
2021/09/10 00:51:09;;;;;;;14.50;13.02;;;;;;;18.22;99.52;100526.09;694958;28;2095;-54
2021/09/10 00:51:30;;;;;;;15.07;12.90;;;;;;;18.21;98.91;100527.00;695463;28;1166;-56
2021/09/10 00:51:51;;;;;;;13.57;12.18;;;;;;;18.23;98.43;100527.78;694880;28;4661;-55
2021/09/10 00:52:12;;;;;;;12.57;11.05;;;;;;;18.23;98.58;100527.78;694054;28;1548;-56
2021/09/10 00:52:32;;;;;;;15.35;12.32;;;;;;;18.22;98.68;100528.72;695268;28;1601;-56
2021/09/10 00:52:53;;;;;;;13.73;12.33;;;;;;;18.21;98.52;100527.00;694456;28;874;-57
2021/09/10 00:53:14;;;;;;;15.07;12.68;;;;;;;18.20;99.20;100527.91;692306;28;1475;-56
2021/09/10 00:53:34;;;;;;;14.75;13.15;;;;;;;18.18;99.63;100525.31;692751;28;1468;-56
2021/09/10 00:53:54;;;;;;;14.43;12.80;;;;;;;18.17;99.99;100526.25;691942;28;1336;-54
2021/09/10 00:54:15;;;;;;;14.43;13.00;;;;;;;18.16;99.98;100531.59;690886;28;1677;-57
2021/09/10 00:54:35;;;;;;;14.82;13.40;;;;;;;18.15;100.00;100529.84;691150;28;1839;-57
2021/09/10 00:54:56;;;;;;;14.23;12.80;;;;;;;18.13;100.00;100526.44;691287;28;4485;-55
2021/09/10 00:55:25;;;;;;;15.95;13.30;;;;;;;18.12;100.00;100529.97;690539;28;1438;-56
2021/09/10 00:55:46;;;;;;;15.07;13.57;;;;;;;18.12;99.96;100524.69;691834;28;1125;-56
2021/09/10 00:56:06;;;;;;;15.07;13.35;;;;;;;18.13;100.00;100527.28;692219;28;1285;-55
2021/09/10 00:56:27;;;;;;;14.67;13.00;;;;;;;18.12;100.00;100532.63;692100;28;4056;-52
2021/09/10 00:56:47;;;;;;;14.77;13.15;;;;;;;18.11;100.00;100526.50;692537;28;1492;-55
2021/09/10 00:57:08;;;;;;;15.27;13.68;;;;;;;18.11;100.00;100526.50;690723;28;4137;-55
2021/09/10 00:57:28;;;;;;;16.03;13.50;;;;;;;18.10;100.00;100523.91;689640;28;1522;-57
2021/09/10 00:57:49;;;;;;;17.57;14.07;;;;;;;18.10;100.00;100524.75;689856;28;1699;-55
2021/09/10 00:58:09;;;;;;;16.00;14.30;;;;;;;18.10;100.00;100531.84;689364;28;4614;-53
2021/09/10 00:58:30;;;;;;;16.70;14.07;;;;;;;18.10;100.00;100529.19;692182;28;1296;-56
2021/09/10 00:58:50;;;;;;;15.00;13.50;;;;;;;18.09;100.00;100527.47;692897;28;1700;-55
2021/09/10 00:59:10;;;;;;;15.35;13.75;;;;;;;18.09;100.00;100527.47;692133;28;1660;-52
2021/09/10 00:59:31;;;;;;;14.97;13.30;;;;;;;18.09;100.00;100527.47;692330;28;1194;-57
2021/09/10 00:59:51;;;;;;;14.87;13.30;;;;;;;18.10;100.00;100534.50;692374;28;4115;-56
2021/09/10 01:00:12;;;;;;;15.70;14.10;;;;;;;18.09;100.00;100530.09;692378;28;1913;-54
2021/09/10 01:00:32;;;;;;;15.67;14.07;;;;;;;18.09;100.00;100530.09;692220;28;3025;-56
2021/09/10 01:00:53;;;;;;;15.48;13.70;;;;;;;18.09;100.00;100527.47;691982;28;4776;-52
2021/09/10 01:01:13;;;;;;;15.90;14.20;;;;;;;18.08;100.00;100531.03;691463;28;1909;-56
2021/09/10 01:01:35;;;;;;;15.20;13.70;;;;;;;18.09;99.93;100527.47;692930;28;1691;-56
2021/09/10 01:01:55;;;;;;;12.38;11.18;;;;;;;18.14;98.67;100530.81;691203;28;1127;-55
2021/09/10 01:02:17;;;;;;;13.50;12.23;;;;;;;18.15;99.28;100529.84;690506;28;1443;-56
2021/09/10 01:02:38;;;;;;;15.18;13.68;;;;;;;18.15;99.74;100527.22;692148;28;1397;-55
2021/09/10 01:02:58;;;;;;;15.17;13.60;;;;;;;18.14;99.98;100530.81;691910;28;1725;-55
2021/09/10 01:03:19;;;;;;;15.27;13.70;;;;;;;18.12;100.00;100532.63;692069;28;1606;-57
2021/09/10 01:03:40;;;;;;;15.95;13.90;;;;;;;18.10;100.00;100529.19;691053;28;3824;-56
2021/09/10 01:04:02;;;;;;;15.75;14.02;;;;;;;18.10;100.00;100531.84;691885;28;4494;-54
2021/09/10 01:04:23;;;;;;;15.68;14.07;;;;;;;18.10;100.00;100529.19;692015;28;1326;-54
2021/09/10 01:04:43;;;;;;;16.00;14.02;;;;;;;18.09;100.00;100533.59;692365;28;1834;-56
2021/09/10 01:05:04;;;;;;;15.40;13.67;;;;;;;18.10;100.00;100529.19;690687;28;1235;-54
2021/09/10 01:05:25;;;;;;;14.07;12.57;;;;;;;18.11;99.37;100528.25;690858;28;1764;-56
2021/09/10 01:05:45;;;;;;;14.47;13.07;;;;;;;18.11;100.00;100526.50;692359;28;1464;-56
2021/09/10 01:06:06;;;;;;;15.87;14.37;;;;;;;18.11;100.00;100528.25;692015;28;1221;-57
2021/09/10 01:06:26;;;;;;;15.07;13.57;;;;;;;18.12;99.23;100532.63;690690;28;926;-56
2021/09/10 01:06:47;;;;;;;14.77;13.38;;;;;;;18.12;99.73;100527.34;692513;28;1586;-57
2021/09/10 01:07:09;;;;;;;15.00;13.50;;;;;;;18.11;100.00;100531.78;691482;28;4593;-54
2021/09/10 01:07:30;;;;;;;15.43;13.75;;;;;;;18.12;100.00;100532.63;692274;28;1829;-57
2021/09/10 01:07:51;;;;;;;15.37;13.77;;;;;;;18.11;99.58;100525.59;692428;28;1436;-56
2021/09/10 01:08:13;;;;;;;14.10;12.70;;;;;;;18.12;99.14;100530.84;691553;28;1379;-56
2021/09/10 01:08:34;;;;;;;13.65;12.30;;;;;;;18.14;98.51;100536.09;692256;28;1585;-56
2021/09/10 01:08:57;;;;;;;14.68;13.18;;;;;;;18.14;99.15;100530.81;691092;28;1837;-56
2021/09/10 01:09:18;;;;;;;15.48;14.00;;;;;;;18.13;99.77;100529.91;692209;28;1448;-53
2021/09/10 01:09:40;;;;;;;15.07;13.52;;;;;;;18.12;100.00;100528.19;691774;28;1397;-54
2021/09/10 01:10:02;;;;;;;15.13;13.52;;;;;;;18.12;99.96;100533.47;690552;28;5401;-53
2021/09/10 01:10:24;;;;;;;14.95;13.35;;;;;;;18.10;99.18;100527.41;691491;28;3398;-55
2021/09/10 01:10:49;;;;;;;14.77;13.27;;;;;;;18.11;99.89;100530.91;692446;28;4214;-57
2021/09/10 01:11:09;;;;;;;14.93;13.30;;;;;;;18.12;99.08;100530.84;692062;28;1992;-57
2021/09/10 01:11:30;;;;;;;14.70;13.20;;;;;;;18.12;98.87;100524.69;692543;28;1934;-55
2021/09/10 01:11:51;;;;;;;12.40;11.20;;;;;;;18.14;98.27;100531.66;692927;28;1305;-55
2021/09/10 01:12:11;;;;;;;11.90;10.70;;;;;;;18.18;97.76;100527.13;691470;28;1628;-55
2021/09/10 01:12:32;;;;;;;13.70;12.27;;;;;;;18.19;98.70;100528.81;691351;28;1767;-57
2021/09/10 01:12:53;;;;;;;14.85;13.30;;;;;;;18.18;99.30;100529.75;692478;28;5492;-56
2021/09/10 01:13:14;;;;;;;14.23;12.73;;;;;;;18.17;99.51;100530.69;692074;28;1207;-56
2021/09/10 01:13:36;;;;;;;14.55;12.77;;;;;;;18.17;99.40;100533.31;691758;28;1341;-56
2021/09/10 01:13:57;;;;;;;15.52;13.18;;;;;;;18.16;99.23;100534.25;691434;28;2839;-56
2021/09/10 01:14:19;;;;;;;14.45;12.95;;;;;;;18.16;99.29;100531.59;692089;28;4353;-55
2021/09/10 01:14:40;;;;;;;14.95;13.45;;;;;;;18.14;99.54;100539.59;691441;28;1539;-55
2021/09/10 01:15:04;;;;;;;14.70;13.20;;;;;;;18.13;99.50;100535.22;691648;28;1776;-55
2021/09/10 01:15:25;;;;;;;13.93;12.57;;;;;;;18.14;98.96;100536.09;691764;28;1682;-55
2021/09/10 01:15:46;;;;;;;14.13;12.65;;;;;;;18.12;100.00;100532.63;691180;28;971;-57
2021/09/10 01:16:07;;;;;;;15.38;13.63;;;;;;;18.12;100.00;100533.47;691219;28;4400;-56
2021/09/10 01:16:27;;;;;;;15.20;13.73;;;;;;;18.11;100.00;100525.59;692629;28;1472;-55
2021/09/10 01:16:49;;;;;;;15.93;14.32;;;;;;;18.11;100.00;100533.53;692403;28;1334;-53
2021/09/10 01:17:09;;;;;;;14.93;13.48;;;;;;;18.10;99.78;100530.03;692071;28;1484;-54
2021/09/10 01:17:30;;;;;;;14.30;12.75;;;;;;;18.10;100.00;100539.78;692551;28;3760;-53
2021/09/10 01:17:50;;;;;;;15.87;13.37;;;;;;;18.12;99.15;100529.97;693924;28;1581;-56
2021/09/10 01:18:11;;;;;;;13.90;12.50;;;;;;;18.13;98.46;100529.91;693389;28;1645;-56
2021/09/10 01:18:31;;;;;;;13.73;12.33;;;;;;;18.14;99.22;100529.00;692966;28;1554;-55
2021/09/10 01:18:52;;;;;;;14.90;13.48;;;;;;;18.14;99.68;100526.38;692080;28;4612;-54
2021/09/10 01:19:22;;;;;;;14.60;13.20;;;;;;;18.14;99.97;100531.66;690760;28;1247;-55
2021/09/10 01:19:43;;;;;;;14.85;13.35;;;;;;;18.12;100.00;100527.34;692207;28;1184;-53
2021/09/10 01:20:09;;;;;;;14.80;13.30;;;;;;;18.10;99.31;100526.56;692571;28;1705;-54
2021/09/10 01:20:29;;;;;;;14.43;12.90;;;;;;;18.10;99.99;100530.03;691607;28;1979;-57
2021/09/10 01:20:50;;;;;;;15.07;13.55;;;;;;;18.11;99.95;100529.13;692128;28;1237;-55
2021/09/10 01:21:10;;;;;;;14.80;13.27;;;;;;;18.11;99.88;100528.25;688430;28;3946;-56
2021/09/10 01:21:30;;;;;;;14.77;13.23;;;;;;;18.10;99.86;100531.84;689664;28;1571;-55
2021/09/10 01:21:56;;;;;;;14.33;12.93;;;;;;;18.08;100.00;100531.88;689374;28;4495;-52
2021/09/10 01:22:17;;;;;;;16.63;14.07;;;;;;;18.08;100.00;100523.94;693229;28;1735;-54
2021/09/10 01:22:37;;;;;;;15.47;13.40;;;;;;;18.07;100.00;100526.66;691537;28;1096;-54
2021/09/10 01:22:57;;;;;;;16.07;13.70;;;;;;;18.07;100.00;100524.00;692044;28;1808;-54
2021/09/10 01:23:18;;;;;;;15.23;13.63;;;;;;;18.04;100.00;100525.84;691233;28;1960;-56
2021/09/10 01:23:38;;;;;;;15.25;13.65;;;;;;;18.07;99.81;100521.34;692158;28;1371;-56
2021/09/10 01:23:59;;;;;;;13.13;11.80;;;;;;;18.08;99.71;100531.88;691544;28;1604;-54
2021/09/10 01:24:47;;;;;;;13.55;12.05;;;;;;;18.07;100.00;100526.66;691466;28;2715;-56
2021/09/10 01:25:12;;;;;;;13.77;12.38;;;;;;;18.09;99.16;100532.75;686256;28;4424;-53
2021/09/10 01:25:32;;;;;;;13.35;12.02;;;;;;;18.09;99.49;100522.16;691714;28;1658;-53
2021/09/10 01:25:53;;;;;;;14.20;12.70;;;;;;;18.10;100.00;100531.84;691988;28;1614;-55
2021/09/10 01:26:13;;;;;;;14.23;12.83;;;;;;;18.09;100.00;100532.75;691819;28;1354;-54
2021/09/10 01:26:33;;;;;;;14.50;13.00;;;;;;;18.08;100.00;100531.88;693062;28;1608;-55
2021/09/10 01:26:58;;;;;;;14.27;12.88;;;;;;;18.07;100.00;100527.53;690259;28;1541;-56
2021/09/10 01:27:18;;;;;;;14.82;13.43;;;;;;;18.08;99.54;100525.72;689833;28;1484;-55
2021/09/10 01:27:54;;;;;;;12.67;11.47;;;;;;;18.17;97.48;100528.03;689956;28;895;-57
2021/09/10 01:28:15;;;;;;;11.85;10.70;;;;;;;18.23;97.31;100530.44;688912;28;4865;-57
2021/09/10 01:28:37;;;;;;;12.57;11.40;;;;;;;18.26;97.23;100526.81;689164;28;3738;-56
2021/09/10 01:29:00;;;;;;;13.77;12.38;;;;;;;18.23;98.56;100525.13;692100;28;1334;-56
2021/09/10 01:29:21;;;;;;;14.02;12.60;;;;;;;18.21;99.39;100527.84;691141;28;1808;-54
2021/09/10 01:29:41;;;;;;;13.93;12.53;;;;;;;18.20;99.51;100528.75;691450;28;1601;-57
2021/09/10 01:30:02;;;;;;;13.65;12.25;;;;;;;18.20;99.37;100530.56;690393;28;1527;-56
2021/09/10 01:30:25;;;;;;;14.83;13.23;;;;;;;18.15;99.63;100530.75;692436;28;1175;-54
2021/09/10 01:30:46;;;;;;;14.70;13.18;;;;;;;18.13;99.79;100527.28;691761;28;1554;-55
2021/09/10 01:31:06;;;;;;;14.30;12.83;;;;;;;18.12;100.00;100528.19;691458;28;4408;-53
2021/09/10 01:31:27;;;;;;;14.90;13.40;;;;;;;18.12;100.00;100527.34;691432;28;3348;-56
2021/09/10 01:31:47;;;;;;;14.87;12.90;;;;;;;18.12;100.00;100528.19;689208;28;4769;-54
2021/09/10 01:32:10;;;;;;;14.05;12.60;;;;;;;18.11;100.00;100522.97;688684;28;1574;-57
2021/09/10 01:32:30;;;;;;;15.20;13.23;;;;;;;18.11;100.00;100536.19;689625;28;1401;-54
2021/09/10 01:32:51;;;;;;;15.77;13.50;;;;;;;18.12;100.00;100527.34;689918;28;1325;-55
2021/09/10 01:33:11;;;;;;;14.65;13.15;;;;;;;18.10;100.00;100529.19;690180;28;1457;-55
2021/09/10 01:33:32;;;;;;;14.70;13.27;;;;;;;18.10;100.00;100529.19;693001;28;1630;-55
2021/09/10 01:33:52;;;;;;;15.18;13.68;;;;;;;18.09;100.00;100523.03;693513;28;6018;-57
2021/09/10 01:34:13;;;;;;;15.00;13.40;;;;;;;18.08;100.00;100531.03;694749;28;1793;-53
2021/09/10 01:34:33;;;;;;;15.67;13.10;;;;;;;18.07;100.00;100521.34;691548;28;1288;-56
2021/09/10 01:34:53;;;;;;;16.70;13.52;;;;;;;18.06;100.00;100527.59;692018;28;3645;-55
2021/09/10 01:35:14;;;;;;;15.13;13.50;;;;;;;18.03;100.00;100524.13;691893;28;1719;-54
2021/09/10 01:35:35;;;;;;;14.93;13.52;;;;;;;18.06;100.00;100522.28;691450;28;2677;-55
2021/09/10 01:35:56;;;;;;;14.80;13.30;;;;;;;18.05;100.00;100526.72;692005;28;1579;-54
2021/09/10 01:36:16;;;;;;;15.10;13.52;;;;;;;18.04;100.00;100527.63;692079;28;1398;-54
2021/09/10 01:36:37;;;;;;;15.23;13.70;;;;;;;18.05;100.00;100526.72;692000;28;1515;-56
2021/09/10 01:36:57;;;;;;;15.87;13.77;;;;;;;18.04;100.00;100522.34;691783;28;4344;-57
2021/09/10 01:37:17;;;;;;;15.63;13.37;;;;;;;18.02;100.00;100521.53;690166;28;1786;-54
2021/09/10 01:37:38;;;;;;;14.20;12.80;;;;;;;18.04;99.38;100528.50;691166;28;1946;-56